Terminal Aerodrome Forecast
Issued by NWS

Home | Current Version | Previous Version | Text Only | Print | Product List | Glossary On
Versions: 1 2 3 4 5 6 7 8 9 10 11 12 13 14 15 16 17 18 19 20
604
FTUS43 KAPX 090520
TAFAPN
TAF
KAPN 090520Z 0906/1006 32008KT P6SM -SHSN OVC025
      TEMPO 0906/0908 1SM -SHSN
     FM091100 32007KT P6SM -SHSN OVC035
     FM091200 31006KT P6SM VCSH BKN035
     FM100000 32004KT P6SM OVC060
     FM100500 00000KT P6SM BKN040=

USA.gov is the U.S. government's official web portal to all federal, state and local government web resources and services.